sensor_id;sensor_type;location;lat;lon;timestamp;temperature;humidity
4964;DHT22;2497;47.410;9.740;2022-10-16T00:01:38;13.80;99.90
4964;DHT22;2497;47.410;9.740;2022-10-16T00:04:05;13.90;99.90
4964;DHT22;2497;47.410;9.740;2022-10-16T00:06:33;13.90;99.90
4964;DHT22;2497;47.410;9.740;2022-10-16T00:09:00;13.80;99.90
4964;DHT22;2497;47.410;9.740;2022-10-16T00:11:30;13.80;99.90
4964;DHT22;2497;47.410;9.740;2022-10-16T00:14:00;13.80;99.90
4964;DHT22;2497;47.410;9.740;2022-10-16T00:16:29;13.80;99.90
4964;DHT22;2497;47.410;9.740;2022-10-16T00:18:57;13.80;99.90
4964;DHT22;2497;47.410;9.740;2022-10-16T00:21:26;13.80;99.90
4964;DHT22;2497;47.410;9.740;2022-10-16T00:23:56;13.80;99.90
4964;DHT22;2497;47.410;9.740;2022-10-16T00:26:26;13.70;99.90
4964;DHT22;2497;47.410;9.740;2022-10-16T00:28:53;13.70;99.90
4964;DHT22;2497;47.410;9.740;2022-10-16T00:31:22;13.80;99.90
4964;DHT22;2497;47.410;9.740;2022-10-16T00:33:52;13.70;99.90
4964;DHT22;2497;47.410;9.740;2022-10-16T00:36:21;13.80;99.90
4964;DHT22;2497;47.410;9.740;2022-10-16T00:38:50;13.70;99.90
4964;DHT22;2497;47.410;9.740;2022-10-16T00:41:21;13.80;99.90
4964;DHT22;2497;47.410;9.740;2022-10-16T00:43:50;13.80;99.90
4964;DHT22;2497;47.410;9.740;2022-10-16T00:46:20;13.80;99.90
4964;DHT22;2497;47.410;9.740;2022-10-16T00:48:53;13.80;99.90
4964;DHT22;2497;47.410;9.740;2022-10-16T00:51:25;13.80;99.90
4964;DHT22;2497;47.410;9.740;2022-10-16T00:53:55;13.80;99.90
4964;DHT22;2497;47.410;9.740;2022-10-16T00:56:23;13.80;99.90
4964;DHT22;2497;47.410;9.740;2022-10-16T00:58:51;13.80;99.90
4964;DHT22;2497;47.410;9.740;2022-10-16T01:01:19;13.80;99.90
4964;DHT22;2497;47.410;9.740;2022-10-16T01:03:46;13.80;99.90
4964;DHT22;2497;47.410;9.740;2022-10-16T01:06:31;13.70;99.90
4964;DHT22;2497;47.410;9.740;2022-10-16T01:09:12;13.70;99.90
4964;DHT22;2497;47.410;9.740;2022-10-16T01:11:49;13.80;99.90
4964;DHT22;2497;47.410;9.740;2022-10-16T01:14:22;13.70;99.90
4964;DHT22;2497;47.410;9.740;2022-10-16T01:16:57;13.80;99.90
4964;DHT22;2497;47.410;9.740;2022-10-16T01:19:47;13.80;99.90
4964;DHT22;2497;47.410;9.740;2022-10-16T01:22:19;13.80;99.90
4964;DHT22;2497;47.410;9.740;2022-10-16T01:24:53;13.80;99.90
4964;DHT22;2497;47.410;9.740;2022-10-16T01:27:25;13.80;99.90
4964;DHT22;2497;47.410;9.740;2022-10-16T01:29:56;13.80;99.90
4964;DHT22;2497;47.410;9.740;2022-10-16T01:32:31;13.80;99.90
4964;DHT22;2497;47.410;9.740;2022-10-16T01:35:04;13.70;99.90
4964;DHT22;2497;47.410;9.740;2022-10-16T01:37:36;13.70;99.90
4964;DHT22;2497;47.410;9.740;2022-10-16T01:40:09;13.70;99.90
4964;DHT22;2497;47.410;9.740;2022-10-16T01:42:41;13.80;99.90
4964;DHT22;2497;47.410;9.740;2022-10-16T01:45:11;13.70;99.90
4964;DHT22;2497;47.410;9.740;2022-10-16T01:47:40;13.70;99.90
4964;DHT22;2497;47.410;9.740;2022-10-16T01:50:09;14.00;99.90
4964;DHT22;2497;47.410;9.740;2022-10-16T01:52:40;14.00;99.90
4964;DHT22;2497;47.410;9.740;2022-10-16T01:55:10;13.90;99.90
4964;DHT22;2497;47.410;9.740;2022-10-16T01:57:44;13.90;99.90
4964;DHT22;2497;47.410;9.740;2022-10-16T02:00:14;13.80;99.90
4964;DHT22;2497;47.410;9.740;2022-10-16T02:02:46;13.80;99.90
4964;DHT22;2497;47.410;9.740;2022-10-16T02:05:18;13.90;99.90
4964;DHT22;2497;47.410;9.740;2022-10-16T02:07:47;14.00;99.90
4964;DHT22;2497;47.410;9.740;2022-10-16T02:10:16;13.90;99.90
4964;DHT22;2497;47.410;9.740;2022-10-16T02:12:48;13.90;99.90
4964;DHT22;2497;47.410;9.740;2022-10-16T02:15:17;13.90;99.90
4964;DHT22;2497;47.410;9.740;2022-10-16T02:17:44;13.90;99.90
4964;DHT22;2497;47.410;9.740;2022-10-16T02:20:12;13.90;99.90
4964;DHT22;2497;47.410;9.740;2022-10-16T02:22:42;13.80;99.90
4964;DHT22;2497;47.410;9.740;2022-10-16T02:25:15;13.80;99.90
4964;DHT22;2497;47.410;9.740;2022-10-16T02:27:53;13.80;99.90
4964;DHT22;2497;47.410;9.740;2022-10-16T02:30:27;13.80;99.90
4964;DHT22;2497;47.410;9.740;2022-10-16T02:32:57;13.70;99.90
4964;DHT22;2497;47.410;9.740;2022-10-16T02:35:27;13.70;99.90
4964;DHT22;2497;47.410;9.740;2022-10-16T02:37:55;13.70;99.90
4964;DHT22;2497;47.410;9.740;2022-10-16T02:40:24;13.70;99.90
4964;DHT22;2497;47.410;9.740;2022-10-16T02:42:54;13.70;99.90
4964;DHT22;2497;47.410;9.740;2022-10-16T02:45:22;13.70;99.90
4964;DHT22;2497;47.410;9.740;2022-10-16T02:47:50;13.70;99.90
4964;DHT22;2497;47.410;9.740;2022-10-16T02:50:18;13.80;99.90
4964;DHT22;2497;47.410;9.740;2022-10-16T02:52:45;13.70;99.90
4964;DHT22;2497;47.410;9.740;2022-10-16T02:55:12;13.70;99.90
4964;DHT22;2497;47.410;9.740;2022-10-16T02:57:40;13.70;99.90
4964;DHT22;2497;47.410;9.740;2022-10-16T03:00:12;13.70;99.90
4964;DHT22;2497;47.410;9.740;2022-10-16T03:02:40;13.70;99.90
4964;DHT22;2497;47.410;9.740;2022-10-16T03:05:08;13.70;99.90
4964;DHT22;2497;47.410;9.740;2022-10-16T03:07:36;13.70;99.90
4964;DHT22;2497;47.410;9.740;2022-10-16T03:10:04;13.70;99.90
4964;DHT22;2497;47.410;9.740;2022-10-16T03:12:32;13.60;99.90
4964;DHT22;2497;47.410;9.740;2022-10-16T03:14:59;13.60;99.90
4964;DHT22;2497;47.410;9.740;2022-10-16T03:17:28;13.70;99.90
4964;DHT22;2497;47.410;9.740;2022-10-16T03:19:56;13.60;99.90
4964;DHT22;2497;47.410;9.740;2022-10-16T03:22:23;13.60;99.90
4964;DHT22;2497;47.410;9.740;2022-10-16T03:24:51;13.50;99.90
4964;DHT22;2497;47.410;9.740;2022-10-16T03:27:18;13.50;99.90
4964;DHT22;2497;47.410;9.740;2022-10-16T03:29:46;13.50;99.90
4964;DHT22;2497;47.410;9.740;2022-10-16T03:32:13;13.40;99.90
4964;DHT22;2497;47.410;9.740;2022-10-16T03:34:42;13.40;99.90
4964;DHT22;2497;47.410;9.740;2022-10-16T03:37:10;13.30;99.90
4964;DHT22;2497;47.410;9.740;2022-10-16T03:39:37;13.20;99.90
4964;DHT22;2497;47.410;9.740;2022-10-16T03:42:04;13.20;99.90
4964;DHT22;2497;47.410;9.740;2022-10-16T03:44:32;13.30;99.90
4964;DHT22;2497;47.410;9.740;2022-10-16T03:47:00;13.30;99.90
4964;DHT22;2497;47.410;9.740;2022-10-16T03:49:27;13.30;99.90
4964;DHT22;2497;47.410;9.740;2022-10-16T03:51:56;13.30;99.90
4964;DHT22;2497;47.410;9.740;2022-10-16T03:54:24;13.30;99.90
4964;DHT22;2497;47.410;9.740;2022-10-16T03:56:51;13.30;99.90
4964;DHT22;2497;47.410;9.740;2022-10-16T03:59:19;13.30;99.90
4964;DHT22;2497;47.410;9.740;2022-10-16T04:01:46;13.40;99.90
4964;DHT22;2497;47.410;9.740;2022-10-16T04:04:14;13.40;99.90
4964;DHT22;2497;47.410;9.740;2022-10-16T04:06:41;13.40;99.90
4964;DHT22;2497;47.410;9.740;2022-10-16T04:09:10;13.50;99.90
4964;DHT22;2497;47.410;9.740;2022-10-16T04:11:37;13.40;99.90
4964;DHT22;2497;47.410;9.740;2022-10-16T04:14:04;13.40;99.90
4964;DHT22;2497;47.410;9.740;2022-10-16T04:16:32;13.40;99.90
4964;DHT22;2497;47.410;9.740;2022-10-16T04:18:59;13.30;99.90
4964;DHT22;2497;47.410;9.740;2022-10-16T04:21:27;13.40;99.90
4964;DHT22;2497;47.410;9.740;2022-10-16T04:23:54;13.40;99.90
4964;DHT22;2497;47.410;9.740;2022-10-16T04:26:23;13.30;99.90
4964;DHT22;2497;47.410;9.740;2022-10-16T04:28:51;13.40;99.90
4964;DHT22;2497;47.410;9.740;2022-10-16T04:31:19;13.30;99.90
4964;DHT22;2497;47.410;9.740;2022-10-16T04:33:47;13.30;99.90
4964;DHT22;2497;47.410;9.740;2022-10-16T04:36:14;13.30;99.90
4964;DHT22;2497;47.410;9.740;2022-10-16T04:38:42;13.40;99.90
4964;DHT22;2497;47.410;9.740;2022-10-16T04:41:10;13.40;99.90
4964;DHT22;2497;47.410;9.740;2022-10-16T04:43:39;13.30;99.90
4964;DHT22;2497;47.410;9.740;2022-10-16T04:46:06;13.30;99.90
4964;DHT22;2497;47.410;9.740;2022-10-16T04:48:35;13.30;99.90
4964;DHT22;2497;47.410;9.740;2022-10-16T04:51:03;13.30;99.90
4964;DHT22;2497;47.410;9.740;2022-10-16T04:53:30;13.30;99.90
4964;DHT22;2497;47.410;9.740;2022-10-16T04:55:57;13.40;99.90
4964;DHT22;2497;47.410;9.740;2022-10-16T04:58:25;13.40;99.90
4964;DHT22;2497;47.410;9.740;2022-10-16T05:00:54;13.30;99.90
4964;DHT22;2497;47.410;9.740;2022-10-16T05:03:21;13.30;99.90
4964;DHT22;2497;47.410;9.740;2022-10-16T05:05:49;13.30;99.90
4964;DHT22;2497;47.410;9.740;2022-10-16T05:08:17;13.30;99.90
4964;DHT22;2497;47.410;9.740;2022-10-16T05:10:45;13.30;99.90
4964;DHT22;2497;47.410;9.740;2022-10-16T05:13:12;13.20;99.90
4964;DHT22;2497;47.410;9.740;2022-10-16T05:15:39;13.20;99.90
4964;DHT22;2497;47.410;9.740;2022-10-16T05:18:09;13.20;99.90
4964;DHT22;2497;47.410;9.740;2022-10-16T05:20:36;13.20;99.90
4964;DHT22;2497;47.410;9.740;2022-10-16T05:23:04;13.20;99.90
4964;DHT22;2497;47.410;9.740;2022-10-16T05:25:31;13.20;99.90
4964;DHT22;2497;47.410;9.740;2022-10-16T05:27:59;13.20;99.90
4964;DHT22;2497;47.410;9.740;2022-10-16T05:30:26;13.40;99.90
4964;DHT22;2497;47.410;9.740;2022-10-16T05:32:54;13.40;99.90
4964;DHT22;2497;47.410;9.740;2022-10-16T05:35:23;13.50;99.90
4964;DHT22;2497;47.410;9.740;2022-10-16T05:37:50;13.50;99.90
4964;DHT22;2497;47.410;9.740;2022-10-16T05:40:18;13.60;99.90
4964;DHT22;2497;47.410;9.740;2022-10-16T05:42:45;13.60;99.90
4964;DHT22;2497;47.410;9.740;2022-10-16T05:45:12;13.60;99.90
4964;DHT22;2497;47.410;9.740;2022-10-16T05:47:40;13.50;99.90
4964;DHT22;2497;47.410;9.740;2022-10-16T05:50:08;13.50;99.90
4964;DHT22;2497;47.410;9.740;2022-10-16T05:52:37;13.50;99.90
4964;DHT22;2497;47.410;9.740;2022-10-16T05:55:05;13.50;99.90
4964;DHT22;2497;47.410;9.740;2022-10-16T05:57:33;13.40;99.90
4964;DHT22;2497;47.410;9.740;2022-10-16T06:00:00;13.40;99.90
4964;DHT22;2497;47.410;9.740;2022-10-16T06:02:27;13.40;99.90
4964;DHT22;2497;47.410;9.740;2022-10-16T06:04:55;13.40;99.90
4964;DHT22;2497;47.410;9.740;2022-10-16T06:07:23;13.40;99.90
4964;DHT22;2497;47.410;9.740;2022-10-16T06:09:52;13.40;99.90
4964;DHT22;2497;47.410;9.740;2022-10-16T06:12:20;13.40;99.90
4964;DHT22;2497;47.410;9.740;2022-10-16T06:14:47;13.40;99.90
4964;DHT22;2497;47.410;9.740;2022-10-16T06:17:15;13.50;99.90
4964;DHT22;2497;47.410;9.740;2022-10-16T06:19:42;13.50;99.90
4964;DHT22;2497;47.410;9.740;2022-10-16T06:22:10;13.40;99.90
4964;DHT22;2497;47.410;9.740;2022-10-16T06:24:38;13.50;99.90
4964;DHT22;2497;47.410;9.740;2022-10-16T06:27:07;13.50;99.90
4964;DHT22;2497;47.410;9.740;2022-10-16T06:29:34;13.50;99.90
4964;DHT22;2497;47.410;9.740;2022-10-16T06:32:02;13.50;99.90
4964;DHT22;2497;47.410;9.740;2022-10-16T06:34:29;13.50;99.90
4964;DHT22;2497;47.410;9.740;2022-10-16T06:36:57;13.50;99.90
4964;DHT22;2497;47.410;9.740;2022-10-16T06:39:24;13.50;99.90
4964;DHT22;2497;47.410;9.740;2022-10-16T06:41:52;13.50;99.90
4964;DHT22;2497;47.410;9.740;2022-10-16T06:44:21;13.50;99.90
4964;DHT22;2497;47.410;9.740;2022-10-16T06:46:49;13.50;99.90
4964;DHT22;2497;47.410;9.740;2022-10-16T06:49:17;13.60;99.90
4964;DHT22;2497;47.410;9.740;2022-10-16T06:51:48;13.60;99.90
4964;DHT22;2497;47.410;9.740;2022-10-16T06:54:16;13.60;99.90
4964;DHT22;2497;47.410;9.740;2022-10-16T06:56:43;13.60;99.90
4964;DHT22;2497;47.410;9.740;2022-10-16T06:59:11;13.60;99.90
4964;DHT22;2497;47.410;9.740;2022-10-16T07:01:40;13.70;99.90
4964;DHT22;2497;47.410;9.740;2022-10-16T07:04:08;13.80;99.90
4964;DHT22;2497;47.410;9.740;2022-10-16T07:06:35;13.90;99.90
4964;DHT22;2497;47.410;9.740;2022-10-16T07:09:05;13.90;99.90
4964;DHT22;2497;47.410;9.740;2022-10-16T07:11:32;14.00;99.90
4964;DHT22;2497;47.410;9.740;2022-10-16T07:14:00;14.10;99.90
4964;DHT22;2497;47.410;9.740;2022-10-16T07:16:29;14.30;99.90
4964;DHT22;2497;47.410;9.740;2022-10-16T07:19:00;14.50;99.90
4964;DHT22;2497;47.410;9.740;2022-10-16T07:21:30;14.70;99.90
4964;DHT22;2497;47.410;9.740;2022-10-16T07:24:01;14.90;99.90
4964;DHT22;2497;47.410;9.740;2022-10-16T07:26:30;15.20;99.90
4964;DHT22;2497;47.410;9.740;2022-10-16T07:28:58;15.40;99.90
4964;DHT22;2497;47.410;9.740;2022-10-16T07:31:26;15.90;99.90
4964;DHT22;2497;47.410;9.740;2022-10-16T07:33:54;16.00;99.90
4964;DHT22;2497;47.410;9.740;2022-10-16T07:36:23;16.20;99.90
4964;DHT22;2497;47.410;9.740;2022-10-16T07:38:51;16.50;99.90
4964;DHT22;2497;47.410;9.740;2022-10-16T07:41:19;16.60;99.90
4964;DHT22;2497;47.410;9.740;2022-10-16T07:43:48;16.70;99.90
4964;DHT22;2497;47.410;9.740;2022-10-16T07:46:16;16.70;99.90
4964;DHT22;2497;47.410;9.740;2022-10-16T07:48:45;16.90;99.90
4964;DHT22;2497;47.410;9.740;2022-10-16T07:51:15;17.20;99.90
4964;DHT22;2497;47.410;9.740;2022-10-16T07:53:44;17.40;99.90
4964;DHT22;2497;47.410;9.740;2022-10-16T07:56:13;17.70;99.90
4964;DHT22;2497;47.410;9.740;2022-10-16T07:58:40;17.70;99.90
4964;DHT22;2497;47.410;9.740;2022-10-16T08:01:09;17.60;99.90
4964;DHT22;2497;47.410;9.740;2022-10-16T08:03:37;17.50;99.90
4964;DHT22;2497;47.410;9.740;2022-10-16T08:06:05;17.50;99.90
4964;DHT22;2497;47.410;9.740;2022-10-16T08:08:33;17.40;99.90
4964;DHT22;2497;47.410;9.740;2022-10-16T08:11:02;17.40;99.90
4964;DHT22;2497;47.410;9.740;2022-10-16T08:13:30;17.30;99.90
4964;DHT22;2497;47.410;9.740;2022-10-16T08:15:57;17.30;99.90
4964;DHT22;2497;47.410;9.740;2022-10-16T08:18:25;17.30;99.90
4964;DHT22;2497;47.410;9.740;2022-10-16T08:20:55;17.30;99.90
4964;DHT22;2497;47.410;9.740;2022-10-16T08:23:23;17.30;99.90
4964;DHT22;2497;47.410;9.740;2022-10-16T08:25:51;17.40;99.90
4964;DHT22;2497;47.410;9.740;2022-10-16T08:28:21;17.40;99.90
4964;DHT22;2497;47.410;9.740;2022-10-16T08:30:48;17.40;99.90
4964;DHT22;2497;47.410;9.740;2022-10-16T08:33:16;17.60;99.90
4964;DHT22;2497;47.410;9.740;2022-10-16T08:35:49;17.90;99.90
4964;DHT22;2497;47.410;9.740;2022-10-16T08:38:16;17.90;99.90
4964;DHT22;2497;47.410;9.740;2022-10-16T08:40:44;18.10;99.90
4964;DHT22;2497;47.410;9.740;2022-10-16T08:43:30;18.20;99.90
4964;DHT22;2497;47.410;9.740;2022-10-16T08:46:26;18.20;99.90
4964;DHT22;2497;47.410;9.740;2022-10-16T08:48:59;18.00;99.90
4964;DHT22;2497;47.410;9.740;2022-10-16T08:51:31;17.90;99.90
4964;DHT22;2497;47.410;9.740;2022-10-16T08:54:02;17.80;99.90
4964;DHT22;2497;47.410;9.740;2022-10-16T08:56:30;17.80;99.90
4964;DHT22;2497;47.410;9.740;2022-10-16T08:59:00;17.90;99.90
4964;DHT22;2497;47.410;9.740;2022-10-16T09:01:37;18.00;99.90
4964;DHT22;2497;47.410;9.740;2022-10-16T09:04:36;18.10;99.90
4964;DHT22;2497;47.410;9.740;2022-10-16T09:07:12;18.20;99.90
4964;DHT22;2497;47.410;9.740;2022-10-16T09:09:53;18.30;99.90
4964;DHT22;2497;47.410;9.740;2022-10-16T09:12:27;18.40;99.90
4964;DHT22;2497;47.410;9.740;2022-10-16T09:15:06;18.50;99.90
4964;DHT22;2497;47.410;9.740;2022-10-16T09:17:41;18.50;99.90
4964;DHT22;2497;47.410;9.740;2022-10-16T09:20:22;18.80;99.90
4964;DHT22;2497;47.410;9.740;2022-10-16T09:22:53;18.90;99.90
4964;DHT22;2497;47.410;9.740;2022-10-16T09:25:22;18.80;99.90
4964;DHT22;2497;47.410;9.740;2022-10-16T09:27:52;18.80;99.90
4964;DHT22;2497;47.410;9.740;2022-10-16T09:30:22;18.80;99.90
4964;DHT22;2497;47.410;9.740;2022-10-16T09:32:52;18.80;99.90
4964;DHT22;2497;47.410;9.740;2022-10-16T09:35:21;18.80;99.90
4964;DHT22;2497;47.410;9.740;2022-10-16T09:37:51;18.90;99.90
4964;DHT22;2497;47.410;9.740;2022-10-16T09:40:30;19.00;99.90
4964;DHT22;2497;47.410;9.740;2022-10-16T09:43:03;19.10;99.90
4964;DHT22;2497;47.410;9.740;2022-10-16T09:45:35;19.00;99.90
4964;DHT22;2497;47.410;9.740;2022-10-16T09:48:10;19.00;99.90
4964;DHT22;2497;47.410;9.740;2022-10-16T09:50:39;19.00;99.90
4964;DHT22;2497;47.410;9.740;2022-10-16T09:53:11;19.00;99.90
4964;DHT22;2497;47.410;9.740;2022-10-16T09:55:48;19.10;99.90
4964;DHT22;2497;47.410;9.740;2022-10-16T09:58:16;19.40;99.90
4964;DHT22;2497;47.410;9.740;2022-10-16T10:00:52;19.30;99.90
4964;DHT22;2497;47.410;9.740;2022-10-16T10:03:33;19.40;99.90
4964;DHT22;2497;47.410;9.740;2022-10-16T10:06:07;19.60;99.90
4964;DHT22;2497;47.410;9.740;2022-10-16T10:08:51;19.80;99.90
4964;DHT22;2497;47.410;9.740;2022-10-16T10:11:38;19.70;99.90
4964;DHT22;2497;47.410;9.740;2022-10-16T10:14:06;19.80;99.90
4964;DHT22;2497;47.410;9.740;2022-10-16T10:16:38;19.80;99.90
4964;DHT22;2497;47.410;9.740;2022-10-16T10:19:14;19.90;99.90
4964;DHT22;2497;47.410;9.740;2022-10-16T10:21:41;20.10;99.90
4964;DHT22;2497;47.410;9.740;2022-10-16T10:24:11;20.10;99.90
4964;DHT22;2497;47.410;9.740;2022-10-16T10:26:42;20.30;99.90
4964;DHT22;2497;47.410;9.740;2022-10-16T10:29:20;20.30;99.90
4964;DHT22;2497;47.410;9.740;2022-10-16T10:32:00;20.20;99.90
4964;DHT22;2497;47.410;9.740;2022-10-16T10:34:47;20.50;99.90
4964;DHT22;2497;47.410;9.740;2022-10-16T10:37:27;20.70;99.90
4964;DHT22;2497;47.410;9.740;2022-10-16T10:40:06;20.70;99.90
4964;DHT22;2497;47.410;9.740;2022-10-16T10:42:41;20.90;99.90
4964;DHT22;2497;47.410;9.740;2022-10-16T10:45:23;21.00;99.90
4964;DHT22;2497;47.410;9.740;2022-10-16T10:48:21;21.00;99.90
4964;DHT22;2497;47.410;9.740;2022-10-16T10:50:55;21.20;99.90
4964;DHT22;2497;47.410;9.740;2022-10-16T10:53:36;21.50;99.90
4964;DHT22;2497;47.410;9.740;2022-10-16T10:56:14;21.80;99.90
4964;DHT22;2497;47.410;9.740;2022-10-16T10:58:58;22.00;99.90
4964;DHT22;2497;47.410;9.740;2022-10-16T11:01:34;22.40;99.90
4964;DHT22;2497;47.410;9.740;2022-10-16T11:07:17;23.10;99.90
4964;DHT22;2497;47.410;9.740;2022-10-16T11:09:47;23.30;99.90
4964;DHT22;2497;47.410;9.740;2022-10-16T11:12:19;23.40;99.90
4964;DHT22;2497;47.410;9.740;2022-10-16T11:14:50;23.70;99.90
4964;DHT22;2497;47.410;9.740;2022-10-16T11:17:26;24.00;99.90
4964;DHT22;2497;47.410;9.740;2022-10-16T11:20:00;24.10;99.90
4964;DHT22;2497;47.410;9.740;2022-10-16T11:22:33;24.50;99.90
4964;DHT22;2497;47.410;9.740;2022-10-16T11:25:11;24.70;99.90
4964;DHT22;2497;47.410;9.740;2022-10-16T11:27:43;25.10;99.90
4964;DHT22;2497;47.410;9.740;2022-10-16T11:30:16;25.00;99.90
4964;DHT22;2497;47.410;9.740;2022-10-16T11:33:08;25.50;99.90
4964;DHT22;2497;47.410;9.740;2022-10-16T11:35:41;25.80;99.90
4964;DHT22;2497;47.410;9.740;2022-10-16T11:38:18;26.10;99.90
4964;DHT22;2497;47.410;9.740;2022-10-16T11:40:53;26.40;99.90
4964;DHT22;2497;47.410;9.740;2022-10-16T11:43:26;26.20;99.90
4964;DHT22;2497;47.410;9.740;2022-10-16T11:45:57;26.20;99.90
4964;DHT22;2497;47.410;9.740;2022-10-16T11:48:31;26.20;99.90
4964;DHT22;2497;47.410;9.740;2022-10-16T11:51:06;26.20;99.90
4964;DHT22;2497;47.410;9.740;2022-10-16T11:53:44;26.60;99.90
4964;DHT22;2497;47.410;9.740;2022-10-16T11:56:13;26.50;99.90
4964;DHT22;2497;47.410;9.740;2022-10-16T11:58:51;26.40;99.90
4964;DHT22;2497;47.410;9.740;2022-10-16T12:01:22;26.30;99.90
4964;DHT22;2497;47.410;9.740;2022-10-16T12:04:03;26.30;99.90
4964;DHT22;2497;47.410;9.740;2022-10-16T12:06:36;26.40;99.90
4964;DHT22;2497;47.410;9.740;2022-10-16T12:09:15;26.30;99.90
4964;DHT22;2497;47.410;9.740;2022-10-16T12:11:43;26.30;99.90
4964;DHT22;2497;47.410;9.740;2022-10-16T12:14:22;26.20;99.90
4964;DHT22;2497;47.410;9.740;2022-10-16T12:17:01;26.50;99.90
4964;DHT22;2497;47.410;9.740;2022-10-16T12:19:31;26.50;99.90
4964;DHT22;2497;47.410;9.740;2022-10-16T12:22:00;25.90;99.90
4964;DHT22;2497;47.410;9.740;2022-10-16T12:24:34;25.90;99.90
4964;DHT22;2497;47.410;9.740;2022-10-16T12:27:04;26.10;99.90
4964;DHT22;2497;47.410;9.740;2022-10-16T12:29:35;26.10;99.90
4964;DHT22;2497;47.410;9.740;2022-10-16T12:32:05;25.90;99.90
4964;DHT22;2497;47.410;9.740;2022-10-16T12:34:38;25.70;99.90
4964;DHT22;2497;47.410;9.740;2022-10-16T12:37:13;25.70;99.90
4964;DHT22;2497;47.410;9.740;2022-10-16T12:39:43;25.20;99.90
4964;DHT22;2497;47.410;9.740;2022-10-16T12:42:23;25.00;99.90
4964;DHT22;2497;47.410;9.740;2022-10-16T12:44:51;24.70;99.90
4964;DHT22;2497;47.410;9.740;2022-10-16T12:47:22;24.90;99.90
4964;DHT22;2497;47.410;9.740;2022-10-16T12:49:51;24.80;99.90
4964;DHT22;2497;47.410;9.740;2022-10-16T12:52:35;24.70;99.90
4964;DHT22;2497;47.410;9.740;2022-10-16T12:55:09;24.50;99.90
4964;DHT22;2497;47.410;9.740;2022-10-16T12:57:44;24.50;99.90
4964;DHT22;2497;47.410;9.740;2022-10-16T13:00:22;24.30;99.90
4964;DHT22;2497;47.410;9.740;2022-10-16T13:06:17;23.70;99.90
4964;DHT22;2497;47.410;9.740;2022-10-16T13:12:12;23.40;99.90
4964;DHT22;2497;47.410;9.740;2022-10-16T13:15:01;23.40;99.90
4964;DHT22;2497;47.410;9.740;2022-10-16T13:17:42;23.20;99.90
4964;DHT22;2497;47.410;9.740;2022-10-16T13:20:20;23.20;99.90
4964;DHT22;2497;47.410;9.740;2022-10-16T13:22:57;23.20;99.90
4964;DHT22;2497;47.410;9.740;2022-10-16T13:25:35;23.20;99.90
4964;DHT22;2497;47.410;9.740;2022-10-16T13:28:08;23.20;99.90
4964;DHT22;2497;47.410;9.740;2022-10-16T13:30:39;23.20;99.90
4964;DHT22;2497;47.410;9.740;2022-10-16T13:33:13;23.20;99.90
4964;DHT22;2497;47.410;9.740;2022-10-16T13:35:48;23.10;99.90
4964;DHT22;2497;47.410;9.740;2022-10-16T13:38:18;22.90;99.90
4964;DHT22;2497;47.410;9.740;2022-10-16T13:40:51;23.00;99.90
4964;DHT22;2497;47.410;9.740;2022-10-16T13:43:23;22.90;99.90
4964;DHT22;2497;47.410;9.740;2022-10-16T13:45:57;22.80;99.90
4964;DHT22;2497;47.410;9.740;2022-10-16T13:48:25;22.90;99.90
4964;DHT22;2497;47.410;9.740;2022-10-16T13:51:11;22.70;99.90
4964;DHT22;2497;47.410;9.740;2022-10-16T13:53:39;22.60;99.90
4964;DHT22;2497;47.410;9.740;2022-10-16T13:56:10;22.80;99.90
4964;DHT22;2497;47.410;9.740;2022-10-16T13:58:39;22.60;99.90
4964;DHT22;2497;47.410;9.740;2022-10-16T14:01:16;22.50;99.90
4964;DHT22;2497;47.410;9.740;2022-10-16T14:03:45;22.50;99.90
4964;DHT22;2497;47.410;9.740;2022-10-16T14:06:15;22.50;99.90
4964;DHT22;2497;47.410;9.740;2022-10-16T14:08:45;22.40;99.90
4964;DHT22;2497;47.410;9.740;2022-10-16T14:11:21;22.40;99.90
4964;DHT22;2497;47.410;9.740;2022-10-16T14:13:52;22.40;99.90
4964;DHT22;2497;47.410;9.740;2022-10-16T14:16:22;22.30;99.90
4964;DHT22;2497;47.410;9.740;2022-10-16T14:18:55;22.30;99.90
4964;DHT22;2497;47.410;9.740;2022-10-16T14:21:24;22.30;99.90
4964;DHT22;2497;47.410;9.740;2022-10-16T14:23:52;22.40;99.90
4964;DHT22;2497;47.410;9.740;2022-10-16T14:26:21;22.40;99.90
4964;DHT22;2497;47.410;9.740;2022-10-16T14:29:08;22.40;99.90
4964;DHT22;2497;47.410;9.740;2022-10-16T14:31:37;22.40;99.90
4964;DHT22;2497;47.410;9.740;2022-10-16T14:34:27;22.40;99.90
4964;DHT22;2497;47.410;9.740;2022-10-16T14:36:56;22.30;99.90
4964;DHT22;2497;47.410;9.740;2022-10-16T14:39:26;22.30;99.90
4964;DHT22;2497;47.410;9.740;2022-10-16T14:41:57;22.30;99.90
4964;DHT22;2497;47.410;9.740;2022-10-16T14:44:29;22.30;99.90
4964;DHT22;2497;47.410;9.740;2022-10-16T14:47:06;22.40;99.90
4964;DHT22;2497;47.410;9.740;2022-10-16T14:49:34;22.40;99.90
4964;DHT22;2497;47.410;9.740;2022-10-16T14:52:04;22.40;99.90
4964;DHT22;2497;47.410;9.740;2022-10-16T14:54:31;22.50;99.90
4964;DHT22;2497;47.410;9.740;2022-10-16T14:56:59;22.40;99.90
4964;DHT22;2497;47.410;9.740;2022-10-16T14:59:32;22.40;99.90
4964;DHT22;2497;47.410;9.740;2022-10-16T15:02:09;22.40;99.90
4964;DHT22;2497;47.410;9.740;2022-10-16T15:04:41;22.40;99.90
4964;DHT22;2497;47.410;9.740;2022-10-16T15:07:08;22.40;99.90
4964;DHT22;2497;47.410;9.740;2022-10-16T15:09:36;22.40;99.90
4964;DHT22;2497;47.410;9.740;2022-10-16T15:12:05;22.40;99.90
4964;DHT22;2497;47.410;9.740;2022-10-16T15:14:34;22.30;99.90
4964;DHT22;2497;47.410;9.740;2022-10-16T15:17:02;22.30;99.90
4964;DHT22;2497;47.410;9.740;2022-10-16T15:19:29;22.20;99.90
4964;DHT22;2497;47.410;9.740;2022-10-16T15:21:57;22.30;99.90
4964;DHT22;2497;47.410;9.740;2022-10-16T15:24:25;22.20;99.90
4964;DHT22;2497;47.410;9.740;2022-10-16T15:26:53;22.20;99.90
4964;DHT22;2497;47.410;9.740;2022-10-16T15:29:20;22.20;99.90
4964;DHT22;2497;47.410;9.740;2022-10-16T15:31:49;22.10;99.90
4964;DHT22;2497;47.410;9.740;2022-10-16T15:34:17;22.00;99.90
4964;DHT22;2497;47.410;9.740;2022-10-16T15:36:45;22.00;99.90
4964;DHT22;2497;47.410;9.740;2022-10-16T15:39:14;22.00;99.90
4964;DHT22;2497;47.410;9.740;2022-10-16T15:41:44;21.80;99.90
4964;DHT22;2497;47.410;9.740;2022-10-16T15:44:16;21.60;99.90
4964;DHT22;2497;47.410;9.740;2022-10-16T15:46:44;21.50;99.90
4964;DHT22;2497;47.410;9.740;2022-10-16T15:49:14;21.20;99.90
4964;DHT22;2497;47.410;9.740;2022-10-16T15:51:42;21.10;99.90
4964;DHT22;2497;47.410;9.740;2022-10-16T15:54:10;20.80;99.90
4964;DHT22;2497;47.410;9.740;2022-10-16T15:56:38;20.80;99.90
4964;DHT22;2497;47.410;9.740;2022-10-16T15:59:06;20.70;99.90
4964;DHT22;2497;47.410;9.740;2022-10-16T16:01:34;20.60;99.90
4964;DHT22;2497;47.410;9.740;2022-10-16T16:04:02;20.50;99.90
4964;DHT22;2497;47.410;9.740;2022-10-16T16:06:31;20.20;99.90
4964;DHT22;2497;47.410;9.740;2022-10-16T16:09:00;20.10;99.90
4964;DHT22;2497;47.410;9.740;2022-10-16T16:11:27;19.90;99.90
4964;DHT22;2497;47.410;9.740;2022-10-16T16:13:57;19.90;99.90
4964;DHT22;2497;47.410;9.740;2022-10-16T16:16:25;19.80;99.90
4964;DHT22;2497;47.410;9.740;2022-10-16T16:18:53;19.70;99.90
4964;DHT22;2497;47.410;9.740;2022-10-16T16:21:21;19.70;99.90
4964;DHT22;2497;47.410;9.740;2022-10-16T16:23:50;19.60;99.90
4964;DHT22;2497;47.410;9.740;2022-10-16T16:26:23;19.60;99.90
4964;DHT22;2497;47.410;9.740;2022-10-16T16:28:52;19.50;99.90
4964;DHT22;2497;47.410;9.740;2022-10-16T16:31:20;19.30;99.90
4964;DHT22;2497;47.410;9.740;2022-10-16T16:33:48;19.20;99.90
4964;DHT22;2497;47.410;9.740;2022-10-16T16:36:17;19.20;99.90